Time;durP1;ratioP1;P1;durP2;ratioP2;P2;SDS_P1;SDS_P2;PMS_P1;PMS_P2;Temp;Humidity;BMP_temperature;BMP_pressure;BME280_temperature;BME280_humidity;BME280_pressure;Samples;Min_cycle;Max_cycle;Signal;HPM_P1;HPM_P2
2024/04/11 00:01:39;;;;;;;3.65;2.25;;;;;;;9.96;100.00;102664.25;6820298;26;20012;-75
2024/04/11 00:04:40;;;;;;;5.15;2.33;;;;;;;9.94;100.00;102658.16;6820615;26;19995;-77
2024/04/11 00:07:43;;;;;;;4.63;1.80;;;;;;;9.92;100.00;102662.56;6820314;26;20362;-75
2024/04/11 00:10:44;;;;;;;5.22;2.40;;;;;;;9.96;100.00;102666.00;6820149;26;19990;-76
2024/04/11 00:13:47;;;;;;;4.63;2.33;;;;;;;9.97;100.00;102660.72;6820512;26;20378;-76
2024/04/11 00:16:50;;;;;;;4.38;2.53;;;;;;;9.99;100.00;102668.56;6820272;26;19994;-74
2024/04/11 00:19:53;;;;;;;3.28;1.80;;;;;;;9.98;100.00;102658.97;6820197;26;20370;-77
2024/04/11 00:22:53;;;;;;;9.15;2.28;;;;;;;9.94;100.00;102658.16;6818851;26;19993;-77
2024/04/11 00:25:57;;;;;;;4.93;2.45;;;;;;;9.94;100.00;102652.91;6819786;26;20435;-74
2024/04/11 00:29:00;;;;;;;7.57;3.05;;;;;;;9.92;100.00;102662.56;6820228;26;19990;-74
2024/04/11 00:32:04;;;;;;;5.97;2.40;;;;;;;9.90;100.00;102641.59;6819951;26;20054;-74
2024/04/11 00:35:07;;;;;;;3.75;2.45;;;;;;;9.88;100.00;102629.41;6819819;26;19998;-74
2024/04/11 00:38:10;;;;;;;6.07;2.13;;;;;;;9.83;100.00;102629.47;6819645;26;20359;-74
2024/04/11 00:41:13;;;;;;;8.30;2.40;;;;;;;9.91;100.00;102629.34;6819345;26;20002;-74
2024/04/11 00:44:16;;;;;;;8.48;2.10;;;;;;;9.93;100.00;102635.41;6819549;26;19994;-75
2024/04/11 00:47:22;;;;;;;3.92;2.15;;;;;;;9.93;100.00;102632.78;6819369;26;19994;-74
2024/04/11 00:50:22;;;;;;;4.90;2.13;;;;;;;9.97;100.00;102633.59;6819458;26;20306;-74
2024/04/11 00:53:26;;;;;;;4.60;2.25;;;;;;;10.01;100.00;102632.63;6819770;26;19998;-74
2024/04/11 00:56:27;;;;;;;3.90;2.13;;;;;;;10.02;100.00;102637.00;6819187;26;19991;-74
2024/04/11 00:59:30;;;;;;;2.85;1.88;;;;;;;10.02;100.00;102634.38;6819209;26;20013;-77
2024/04/11 01:02:33;;;;;;;5.80;1.95;;;;;;;9.97;100.00;102630.97;6819045;26;19994;-74
2024/04/11 01:05:36;;;;;;;3.75;2.22;;;;;;;9.98;100.00;102633.56;6819439;26;20255;-74
2024/04/11 01:08:36;;;;;;;11.95;2.35;;;;;;;10.00;100.00;102639.66;6819380;26;19990;-74
2024/04/11 01:11:39;;;;;;;5.82;2.10;;;;;;;10.02;100.00;102643.09;6818734;26;20040;-77
2024/04/11 01:14:43;;;;;;;3.88;2.42;;;;;;;10.04;100.00;102650.97;6819365;26;19994;-74
2024/04/11 01:17:47;;;;;;;7.60;2.40;;;;;;;10.03;100.00;102642.19;6818698;26;20362;-75
2024/04/11 01:20:50;;;;;;;9.20;2.50;;;;;;;10.01;100.00;102645.78;6818686;26;20005;-77
2024/04/11 01:23:53;;;;;;;7.90;2.33;;;;;;;10.02;100.00;102652.75;6818641;26;19990;-74
2024/04/11 01:26:59;;;;;;;7.10;2.25;;;;;;;10.00;100.00;102644.06;6818395;26;20285;-75
2024/04/11 01:30:02;;;;;;;5.30;2.05;;;;;;;10.01;100.00;102644.00;6819019;26;20370;-74
2024/04/11 01:33:09;;;;;;;4.22;2.42;;;;;;;9.99;100.00;102639.66;6818441;26;20063;-74
2024/04/11 01:36:10;;;;;;;6.10;2.08;;;;;;;9.97;100.00;102623.09;6822767;26;20005;-74
2024/04/11 01:39:16;;;;;;;7.55;2.53;;;;;;;9.95;100.00;102612.63;6822953;26;20035;-74
2024/04/11 01:42:18;;;;;;;5.57;2.00;;;;;;;9.99;100.00;102608.16;6823126;26;20057;-74
2024/04/11 01:45:21;;;;;;;5.03;2.33;;;;;;;10.03;100.00;102601.94;6822952;26;20394;-77
2024/04/11 01:48:21;;;;;;;6.18;2.63;;;;;;;10.07;100.00;102604.47;6823100;26;19994;-75
2024/04/11 01:51:24;;;;;;;7.75;2.72;;;;;;;10.16;100.00;102595.53;6822562;26;20054;-77
2024/04/11 01:54:29;;;;;;;9.15;2.42;;;;;;;10.18;99.35;102595.50;6823164;26;20004;-74
2024/04/11 01:57:30;;;;;;;5.78;2.10;;;;;;;10.17;100.00;102597.25;6822332;26;20006;-75
2024/04/11 02:00:36;;;;;;;8.07;2.45;;;;;;;10.27;99.47;102608.47;6822758;26;20002;-76
2024/04/11 02:03:38;;;;;;;2.38;2.03;;;;;;;10.35;97.32;102615.25;6822698;26;20091;-76
2024/04/11 02:06:42;;;;;;;4.60;1.98;;;;;;;10.38;95.65;102615.22;6822793;26;20004;-76
2024/04/11 02:09:45;;;;;;;4.80;1.92;;;;;;;10.41;93.22;102620.41;6818406;26;20080;-76
2024/04/11 02:12:49;;;;;;;3.60;2.00;;;;;;;10.47;93.78;102623.78;6816552;26;20438;-74
2024/04/11 02:15:49;;;;;;;4.63;1.83;;;;;;;10.48;95.94;102634.25;6817292;26;19998;-77
2024/04/11 02:18:53;;;;;;;5.38;2.58;;;;;;;10.51;95.60;102639.47;6822327;26;20027;-74
2024/04/11 02:21:53;;;;;;;6.38;2.38;;;;;;;10.50;95.00;102631.63;6822111;26;19994;-76
2024/04/11 02:24:58;;;;;;;3.25;1.80;;;;;;;10.58;95.25;102624.38;6812597;26;20390;-76
2024/04/11 02:27:59;;;;;;;6.10;1.83;;;;;;;10.57;94.59;102618.28;6776603;26;20377;-77
2024/04/11 02:31:02;;;;;;;3.42;2.20;;;;;;;10.57;93.16;102618.28;6776533;26;20003;-76
2024/04/11 02:34:02;;;;;;;2.97;1.30;;;;;;;10.63;92.40;102614.66;6776676;26;20093;-76
2024/04/11 02:37:06;;;;;;;4.78;1.88;;;;;;;10.58;93.71;102614.78;6776401;26;20305;-75
2024/04/11 02:40:09;;;;;;;10.30;2.22;;;;;;;10.66;92.94;102606.69;6787907;26;20002;-74
2024/04/11 02:43:12;;;;;;;3.70;1.90;;;;;;;10.66;92.53;102612.78;6821507;26;20005;-76
2024/04/11 02:46:15;;;;;;;3.15;1.45;;;;;;;10.70;91.64;102615.38;6821020;26;20054;-74
2024/04/11 02:49:18;;;;;;;4.68;1.88;;;;;;;10.69;90.39;102608.38;6821827;26;19990;-77
2024/04/11 02:52:18;;;;;;;3.78;1.70;;;;;;;10.65;92.16;102603.19;6821416;26;20041;-77
2024/04/11 02:55:24;;;;;;;5.00;1.92;;;;;;;10.68;91.40;102604.03;6821645;26;20231;-74
2024/04/11 02:58:27;;;;;;;5.70;2.00;;;;;;;10.71;90.87;102609.19;6821476;26;19994;-76
2024/04/11 03:01:31;;;;;;;4.93;1.63;;;;;;;10.72;92.05;102596.03;6821817;26;19994;-76
2024/04/11 03:04:34;;;;;;;6.22;1.30;;;;;;;10.78;90.28;102601.13;6821608;26;19994;-74
2024/04/11 03:07:34;;;;;;;1.80;1.55;;;;;;;10.76;90.24;102596.81;6821427;26;20008;-77
2024/04/11 03:10:44;;;;;;;5.22;2.00;;;;;;;10.77;89.90;102594.16;6821107;26;19994;-75
2024/04/11 03:13:47;;;;;;;4.30;2.03;;;;;;;10.79;91.17;102600.22;6821494;26;20005;-75
2024/04/11 03:16:47;;;;;;;2.90;1.70;;;;;;;10.79;92.29;102592.34;6821345;26;19990;-77
2024/04/11 03:19:50;;;;;;;7.85;1.40;;;;;;;10.85;89.98;102581.66;6821236;26;20443;-74
2024/04/11 03:22:51;;;;;;;4.75;1.60;;;;;;;10.87;89.05;102577.22;6821053;26;20246;-74
2024/04/11 03:25:58;;;;;;;4.03;1.60;;;;;;;10.84;87.79;102571.19;6821157;26;19994;-75
2024/04/11 03:28:58;;;;;;;4.80;2.08;;;;;;;10.86;88.74;102566.75;6821013;26;20009;-74
2024/04/11 03:32:01;;;;;;;3.00;1.67;;;;;;;10.86;88.19;102567.63;6820906;26;19994;-74
2024/04/11 03:35:04;;;;;;;11.23;2.13;;;;;;;10.81;89.14;102569.50;6821258;26;20372;-75
2024/04/11 03:38:07;;;;;;;7.82;1.42;;;;;;;10.84;87.38;102569.41;6820903;26;19990;-75
2024/04/11 03:41:11;;;;;;;6.93;1.55;;;;;;;10.78;88.09;102576.59;6820596;26;19994;-74
2024/04/11 03:44:14;;;;;;;10.50;1.80;;;;;;;10.81;87.42;102574.78;6820827;26;19994;-77
2024/04/11 03:50:19;;;;;;;9.48;2.45;;;;;;;10.77;87.36;102570.50;6727793;26;20271;-74
2024/04/11 03:53:20;;;;;;;4.32;1.40;;;;;;;10.92;85.74;102567.47;6757725;26;20370;-74
2024/04/11 03:56:27;;;;;;;3.03;1.52;;;;;;;10.90;84.63;102569.28;6774985;26;20072;-74
2024/04/11 03:59:28;;;;;;;3.35;1.40;;;;;;;10.92;85.82;102567.47;6774530;26;20240;-74
2024/04/11 04:02:31;;;;;;;5.28;1.52;;;;;;;10.89;85.85;102564.03;6775104;26;20005;-74
2024/04/11 04:05:34;;;;;;;8.27;1.80;;;;;;;10.93;86.76;102569.19;6774834;26;20442;-74
2024/04/11 04:08:35;;;;;;;7.03;1.60;;;;;;;10.96;84.98;102568.25;6775426;26;19991;-74
2024/04/11 04:11:41;;;;;;;5.82;1.55;;;;;;;10.95;84.48;102563.03;6774840;26;20006;-73
2024/04/11 04:14:42;;;;;;;3.92;1.15;;;;;;;10.94;86.30;102551.63;6773178;26;20305;-74
2024/04/11 04:17:51;;;;;;;3.85;1.83;;;;;;;10.93;85.51;102560.44;6774523;26;20002;-73
2024/04/11 04:20:54;;;;;;;5.43;1.92;;;;;;;10.95;86.04;102557.78;6730096;26;20414;-73
2024/04/11 04:24:02;;;;;;;5.45;1.63;;;;;;;10.95;87.04;102552.53;6730320;26;20006;-73
2024/04/11 04:27:08;;;;;;;7.57;1.63;;;;;;;10.94;85.51;102546.38;6730315;26;20006;-73
2024/04/11 04:30:09;;;;;;;2.22;1.10;;;;;;;11.05;82.81;102543.47;6730180;26;19992;-73
2024/04/11 04:33:12;;;;;;;6.25;1.67;;;;;;;11.06;82.50;102540.78;6729893;26;20007;-73
2024/04/11 04:36:15;;;;;;;9.25;1.58;;;;;;;11.04;82.66;102539.97;6729858;26;20259;-73
2024/04/11 04:39:30;;;;;;;4.22;1.05;;;;;;;11.09;81.51;102535.47;6729797;26;20007;-73
2024/04/11 04:42:33;;;;;;;6.53;1.48;;;;;;;11.08;82.04;102539.00;6730175;26;20361;-73
2024/04/11 04:45:36;;;;;;;1.98;1.00;;;;;;;11.09;83.34;102535.47;6729857;26;20363;-73
2024/04/11 04:48:40;;;;;;;9.27;1.02;;;;;;;11.06;82.33;102532.91;6729904;26;19995;-73
2024/04/11 04:51:41;;;;;;;6.47;1.30;;;;;;;11.11;81.82;102545.94;6729573;26;19996;-73
2024/04/11 04:54:44;;;;;;;3.60;1.15;;;;;;;11.10;82.17;102537.19;6729809;26;20382;-73
2024/04/11 04:57:50;;;;;;;5.22;1.33;;;;;;;11.07;82.23;102534.63;6729937;26;20264;-73
2024/04/11 05:00:52;;;;;;;4.18;1.33;;;;;;;11.04;81.76;102537.34;6729600;26;20006;-74
2024/04/11 05:03:55;;;;;;;2.65;1.10;;;;;;;11.06;82.60;102538.16;6729546;26;19995;-73
2024/04/11 05:06:58;;;;;;;4.70;1.17;;;;;;;11.04;82.39;102541.75;6729739;26;20003;-75
2024/04/11 05:09:59;;;;;;;4.10;1.50;;;;;;;11.03;79.76;102532.09;6731796;26;20056;-74
2024/04/11 05:13:09;;;;;;;7.20;1.60;;;;;;;11.08;81.79;102540.75;6746403;26;19995;-75
2024/04/11 05:16:12;;;;;;;5.68;1.02;;;;;;;11.10;81.90;102544.22;6778059;26;20254;-74
2024/04/11 05:19:17;;;;;;;7.38;2.08;;;;;;;11.16;81.18;102541.41;6775902;26;20017;-73
2024/04/11 05:22:17;;;;;;;3.47;1.30;;;;;;;11.14;81.55;102541.47;6778477;26;20303;-73
2024/04/11 05:25:21;;;;;;;6.15;1.40;;;;;;;11.22;80.20;102549.16;6777966;26;19995;-73
2024/04/11 05:28:34;;;;;;;2.70;1.40;;;;;;;11.30;79.47;102559.44;6777983;26;20276;-74
2024/04/11 05:31:38;;;;;;;4.47;1.38;;;;;;;11.31;79.83;102555.91;6778137;26;19999;-73
2024/04/11 05:34:39;;;;;;;2.58;1.15;;;;;;;11.32;79.16;102552.41;6778000;26;20410;-73
2024/04/11 05:37:44;;;;;;;2.50;1.00;;;;;;;11.35;78.95;102547.88;6777407;26;19998;-75
2024/04/11 05:40:44;;;;;;;5.65;1.27;;;;;;;11.42;80.50;102552.09;6777231;26;20360;-74
2024/04/11 05:43:50;;;;;;;8.20;1.00;;;;;;;11.46;82.18;102538.84;6777800;26;20010;-74
2024/04/11 05:46:50;;;;;;;9.63;1.45;;;;;;;11.52;79.14;102541.28;6772049;26;20002;-73
2024/04/11 05:49:53;;;;;;;3.45;1.25;;;;;;;11.54;79.86;102540.34;6762415;26;20399;-73
2024/04/11 05:52:54;;;;;;;2.45;0.90;;;;;;;11.61;81.53;102546.28;6762127;26;20002;-73
2024/04/11 05:55:57;;;;;;;3.47;1.23;;;;;;;11.56;79.45;102550.84;6763397;26;20076;-73
2024/04/11 05:59:02;;;;;;;4.68;1.20;;;;;;;11.57;80.49;102548.16;6777719;26;20034;-73
2024/04/11 06:02:03;;;;;;;4.97;1.05;;;;;;;11.60;78.96;102557.75;6762187;26;20263;-73
2024/04/11 06:05:07;;;;;;;1.88;1.00;;;;;;;11.60;78.46;102555.97;6764141;26;20014;-73
2024/04/11 06:08:08;;;;;;;7.65;1.15;;;;;;;11.63;80.08;102557.66;6765769;26;19998;-74
2024/04/11 06:11:12;;;;;;;2.30;1.10;;;;;;;11.67;79.53;102549.63;6776824;26;19991;-73
2024/04/11 06:14:15;;;;;;;3.60;1.10;;;;;;;11.71;80.02;102547.75;6758765;26;20027;-73
2024/04/11 06:17:18;;;;;;;4.53;1.08;;;;;;;11.72;80.23;102549.50;6761079;26;20018;-73
2024/04/11 06:20:21;;;;;;;8.07;1.48;;;;;;;11.78;79.95;102553.72;6775822;26;19998;-73
2024/04/11 06:23:26;;;;;;;7.93;1.95;;;;;;;11.76;80.03;102558.16;6754358;26;20004;-73
2024/04/11 06:26:29;;;;;;;5.80;2.67;;;;;;;11.78;79.24;102556.34;6732381;26;19992;-73
2024/04/11 06:29:37;;;;;;;2.85;1.05;;;;;;;11.81;77.05;102557.13;6732717;26;20007;-73
2024/04/11 06:32:40;;;;;;;5.28;1.02;;;;;;;11.86;79.79;102562.31;6732662;26;20007;-74
2024/04/11 06:35:46;;;;;;;6.13;0.98;;;;;;;11.95;77.81;102566.44;6732141;26;20003;-74
2024/04/11 06:38:51;;;;;;;2.75;1.00;;;;;;;11.91;77.47;102555.97;6732031;26;20074;-73
2024/04/11 06:41:55;;;;;;;2.88;0.90;;;;;;;11.97;77.38;102556.69;6732522;26;20007;-74
2024/04/11 06:45:00;;;;;;;3.25;1.15;;;;;;;11.98;78.00;102558.41;6775278;26;20010;-74
2024/04/11 06:48:01;;;;;;;8.10;1.05;;;;;;;12.10;76.13;102556.28;6761158;26;20015;-73
2024/04/11 06:51:06;;;;;;;5.47;1.02;;;;;;;12.07;75.97;102560.78;6773876;26;20013;-74
2024/04/11 06:54:09;;;;;;;2.88;0.90;;;;;;;12.11;76.67;102565.03;6765341;26;20014;-73
2024/04/11 06:57:14;;;;;;;4.57;1.10;;;;;;;12.14;77.20;102563.19;6771435;26;20067;-74
2024/04/11 07:00:21;;;;;;;4.63;1.27;;;;;;;12.17;75.96;102567.47;6751868;26;20388;-74
2024/04/11 07:03:26;;;;;;;3.53;1.02;;;;;;;12.26;74.73;102564.56;6759060;26;20002;-74
2024/04/11 07:06:29;;;;;;;5.82;0.80;;;;;;;12.32;75.40;102571.44;6775912;26;19998;-73
2024/04/11 07:09:37;;;;;;;6.53;1.02;;;;;;;12.39;74.35;102571.16;6775978;26;19991;-74
2024/04/11 07:12:41;;;;;;;5.43;0.90;;;;;;;12.39;73.29;102584.34;6776140;26;20034;-73
2024/04/11 07:15:44;;;;;;;2.85;1.00;;;;;;;12.35;75.22;102581.88;6762227;26;20382;-73
2024/04/11 07:18:48;;;;;;;2.55;1.15;;;;;;;12.32;74.09;102580.19;6731585;26;20260;-72
2024/04/11 07:21:48;;;;;;;5.15;1.33;;;;;;;12.38;75.85;102577.38;6731261;26;20005;-72
2024/04/11 07:24:53;;;;;;;2.83;1.17;;;;;;;12.35;75.41;102579.22;6731130;26;20007;-74
2024/04/11 07:27:55;;;;;;;3.67;1.40;;;;;;;12.43;74.18;102582.50;6731214;26;20385;-73
2024/04/11 07:31:01;;;;;;;3.70;1.00;;;;;;;12.49;74.71;102595.50;6731038;26;20035;-73
2024/04/11 07:34:02;;;;;;;8.45;1.20;;;;;;;12.49;73.64;102611.31;6755437;26;20018;-73
2024/04/11 07:37:06;;;;;;;6.35;1.10;;;;;;;12.51;75.53;102620.03;6760989;26;20003;-73
2024/04/11 07:40:27;;;;;;;8.13;1.20;;;;;;;12.47;74.75;102618.41;6763737;26;20395;-74
2024/04/11 07:43:31;;;;;;;2.28;1.05;;;;;;;12.52;73.25;102639.34;6751846;26;20000;-72
2024/04/11 07:46:34;;;;;;;3.97;1.23;;;;;;;12.57;73.39;102635.66;6745976;26;19991;-73
2024/04/11 07:49:37;;;;;;;2.50;1.00;;;;;;;12.58;73.24;102645.31;6730524;26;20441;-73
2024/04/11 07:52:37;;;;;;;4.50;1.30;;;;;;;12.43;73.58;102653.69;6730751;26;20627;-74
2024/04/11 07:55:40;;;;;;;4.10;1.13;;;;;;;12.50;74.35;102657.88;6757622;26;20053;-74
2024/04/11 07:58:41;;;;;;;5.80;1.10;;;;;;;12.56;73.77;102647.13;6771616;26;19991;-74
2024/04/11 08:01:47;;;;;;;4.60;1.13;;;;;;;12.49;74.21;102660.53;6759891;26;20435;-75
2024/04/11 08:04:50;;;;;;;4.30;0.98;;;;;;;12.51;76.01;102662.22;6775747;26;19991;-75
2024/04/11 08:07:51;;;;;;;3.33;1.08;;;;;;;12.58;77.64;102671.69;6774599;26;20301;-73
2024/04/11 08:11:02;;;;;;;3.63;1.30;;;;;;;12.59;78.27;102670.78;6774813;26;20002;-74
2024/04/11 08:14:04;;;;;;;5.05;0.90;;;;;;;12.50;79.91;102676.34;6775132;26;20255;-74
2024/04/11 08:17:13;;;;;;;1.73;0.80;;;;;;;12.45;82.74;102675.63;6775005;26;20014;-74
2024/04/11 08:20:13;;;;;;;7.65;0.98;;;;;;;12.37;84.62;102675.84;6775397;26;20055;-74
2024/04/11 08:23:20;;;;;;;2.53;1.30;;;;;;;12.26;88.13;102674.41;6772714;26;20386;-73
2024/04/11 08:26:21;;;;;;;4.90;1.27;;;;;;;12.19;93.12;102677.25;6759428;26;20006;-74
2024/04/11 08:29:24;;;;;;;9.23;1.98;;;;;;;12.13;93.22;102680.06;6756204;26;19998;-75
2024/04/11 08:32:27;;;;;;;4.68;1.33;;;;;;;12.16;92.88;102674.69;6774832;26;20075;-75
2024/04/11 08:35:32;;;;;;;6.57;1.77;;;;;;;12.14;96.30;102679.16;6774729;26;20355;-73
2024/04/11 08:38:36;;;;;;;2.92;1.10;;;;;;;12.09;100.00;102680.19;6774985;26;20351;-75
2024/04/11 08:41:39;;;;;;;6.85;2.10;;;;;;;12.07;100.00;102677.59;6774113;26;19999;-74
2024/04/11 08:44:42;;;;;;;4.18;1.17;;;;;;;12.04;100.00;102690.88;6762494;26;20027;-75
2024/04/11 08:47:48;;;;;;;6.00;1.15;;;;;;;12.04;100.00;102684.75;6770922;26;20668;-75
2024/04/11 08:50:52;;;;;;;3.45;1.65;;;;;;;12.06;100.00;102675.88;6774139;26;20373;-74
2024/04/11 08:53:56;;;;;;;9.05;1.27;;;;;;;12.06;100.00;102683.78;6774339;26;20286;-74
2024/04/11 08:56:58;;;;;;;3.72;1.30;;;;;;;12.10;100.00;102693.31;6774072;26;20317;-74
2024/04/11 09:00:09;;;;;;;7.32;1.40;;;;;;;12.10;100.00;102705.63;6758830;26;20007;-74
2024/04/11 09:03:18;;;;;;;5.53;1.58;;;;;;;12.14;100.00;102700.25;6774023;26;20283;-75
2024/04/11 09:06:24;;;;;;;6.43;1.30;;;;;;;12.26;100.00;102698.13;6769187;26;20022;-75
2024/04/11 09:09:27;;;;;;;10.02;2.47;;;;;;;12.38;100.00;102708.34;6729395;26;20368;-75
2024/04/11 09:12:28;;;;;;;7.28;1.77;;;;;;;12.47;100.00;102717.75;6729447;26;20028;-74
2024/04/11 09:15:32;;;;;;;7.38;1.45;;;;;;;12.55;100.00;102716.63;6729088;26;20003;-75
2024/04/11 09:18:35;;;;;;;7.60;1.40;;;;;;;12.52;100.00;102719.34;6728842;26;20048;-76
2024/04/11 09:21:45;;;;;;;3.42;1.00;;;;;;;12.64;100.00;102718.13;6729050;26;20011;-77
2024/04/11 09:24:46;;;;;;;5.15;1.73;;;;;;;12.70;100.00;102720.56;6728859;26;19995;-76
2024/04/11 09:27:50;;;;;;;7.05;1.38;;;;;;;12.73;100.00;102725.75;6728998;26;20032;-76
2024/04/11 09:30:58;;;;;;;3.80;1.25;;;;;;;12.90;100.00;102728.75;6728692;26;20263;-76
2024/04/11 09:34:04;;;;;;;3.08;1.23;;;;;;;12.95;100.00;102744.44;6729146;26;19999;-76
2024/04/11 09:37:09;;;;;;;6.28;1.85;;;;;;;12.94;100.00;102745.31;6729243;26;19995;-74
2024/04/11 09:40:19;;;;;;;10.77;2.47;;;;;;;12.93;100.00;102747.09;6728496;26;19996;-75
2024/04/11 09:43:22;;;;;;;4.82;1.13;;;;;;;12.89;100.00;102750.72;6733824;26;20005;-77
2024/04/11 09:46:27;;;;;;;2.90;1.13;;;;;;;12.81;100.00;102762.44;6773190;26;20334;-77
2024/04/11 09:49:34;;;;;;;7.50;1.52;;;;;;;12.76;100.00;102772.25;6750535;21;20023;-82
2024/04/11 09:52:37;;;;;;;6.78;1.10;;;;;;;12.60;100.00;102764.81;6715979;26;20029;-80
2024/04/11 09:55:40;;;;;;;9.73;1.48;;;;;;;12.62;100.00;102764.75;6716352;26;20007;-80
2024/04/11 09:58:43;;;;;;;5.10;1.30;;;;;;;12.64;100.00;102765.59;6720956;26;20411;-81
2024/04/11 10:01:47;;;;;;;3.10;1.10;;;;;;;12.59;100.00;102764.88;6720161;26;20007;-82
2024/04/11 10:04:58;;;;;;;5.57;1.10;;;;;;;12.68;100.00;102760.19;6720490;26;19996;-82
2024/04/11 10:08:01;;;;;;;1.60;1.15;;;;;;;12.72;100.00;102767.97;6789043;26;20118;-83
2024/04/11 10:11:10;;;;;;;2.63;1.33;;;;;;;12.64;100.00;102771.72;6822340;26;19994;-79
2024/04/11 10:14:20;;;;;;;9.23;1.63;;;;;;;12.60;100.00;102770.09;6823185;26;20542;-82
2024/04/11 10:17:28;;;;;;;11.77;1.40;;;;;;;12.66;100.00;102761.97;6822170;26;19994;-83
2024/04/11 10:20:43;;;;;;;8.57;1.50;;;;;;;12.79;100.00;102769.53;6822494;26;19994;-81
2024/04/11 10:23:48;;;;;;;2.75;1.45;;;;;;;12.77;100.00;102780.16;6822906;26;20328;-81
2024/04/11 10:26:54;;;;;;;3.53;1.40;;;;;;;12.80;100.00;102776.53;6822298;26;20336;-79
2024/04/11 10:30:05;;;;;;;4.55;1.50;;;;;;;12.97;100.00;102779.53;6822194;26;20013;-80
2024/04/11 10:33:13;;;;;;;11.07;1.83;;;;;;;12.95;100.00;102776.09;6822064;26;19990;-81
2024/04/11 10:36:21;;;;;;;10.10;2.20;;;;;;;13.01;100.00;102775.03;6822131;26;20001;-81
2024/04/11 10:39:23;;;;;;;5.80;1.20;;;;;;;13.20;100.00;102781.47;6822088;26;20051;-81
2024/04/11 10:42:36;;;;;;;4.85;1.27;;;;;;;13.34;100.00;102781.91;6821774;26;19998;-81
2024/04/11 10:45:38;;;;;;;4.68;1.25;;;;;;;13.36;100.00;102773.97;6731463;26;20094;-81
2024/04/11 10:48:44;;;;;;;4.72;1.33;;;;;;;13.49;100.00;102775.28;6719449;26;20036;-80
2024/04/11 10:51:50;;;;;;;7.03;1.58;;;;;;;13.56;100.00;102783.84;6719300;26;19991;-81
2024/04/11 10:55:12;;;;;;;3.50;1.25;;;;;;;13.53;100.00;102795.38;6719327;26;20025;-82
2024/04/11 10:58:22;;;;;;;3.33;1.63;;;;;;;13.65;100.00;102802.91;6718897;26;19996;-80
2024/04/11 11:01:26;;;;;;;10.77;1.98;;;;;;;13.74;100.00;102800.88;6719274;26;20006;-81
2024/04/11 11:04:30;;;;;;;4.68;1.33;;;;;;;13.76;100.00;102786.69;6719320;26;19999;-80
2024/04/11 11:07:35;;;;;;;3.20;1.23;;;;;;;13.82;100.00;102786.50;6771782;26;19994;-82
2024/04/11 11:10:40;;;;;;;11.60;2.97;;;;;;;14.08;100.00;102788.22;6821256;26;20009;-81
2024/04/11 11:13:42;;;;;;;5.75;1.63;;;;;;;14.17;100.00;102790.56;6821706;26;20004;-79
2024/04/11 11:16:47;;;;;;;6.55;1.10;;;;;;;14.26;100.00;102793.75;6821375;26;19994;-81
2024/04/11 11:19:51;;;;;;;4.50;1.20;;;;;;;14.35;100.00;102791.69;6821347;26;20054;-77
2024/04/11 11:22:58;;;;;;;2.95;1.60;;;;;;;14.45;98.70;102786.91;6754581;26;20010;-81
2024/04/11 11:26:01;;;;;;;4.55;1.42;;;;;;;14.46;100.00;102770.97;6718880;26;20010;-80
2024/04/11 11:29:03;;;;;;;3.60;1.75;;;;;;;14.70;98.16;102785.06;6719140;26;19999;-79
2024/04/11 11:32:18;;;;;;;9.95;1.50;;;;;;;14.87;99.16;102786.22;6719454;26;19996;-77
2024/04/11 11:35:19;;;;;;;2.90;1.33;;;;;;;15.22;98.13;102780.41;6718186;26;20367;-79
2024/04/11 11:38:24;;;;;;;9.52;2.50;;;;;;;15.37;94.88;102794.81;6717139;26;20036;-81
2024/04/11 11:41:25;;;;;;;4.07;1.77;;;;;;;15.23;93.07;102798.03;6717964;26;20075;-79
2024/04/11 11:44:40;;;;;;;8.52;1.70;;;;;;;15.22;93.69;102801.59;6717893;26;20333;-78
2024/04/11 11:47:45;;;;;;;6.28;1.58;;;;;;;15.17;94.22;102800.91;6718217;26;19999;-81
2024/04/11 11:50:52;;;;;;;2.10;1.38;;;;;;;15.31;96.99;102800.38;6717967;26;20360;-79
2024/04/11 11:53:57;;;;;;;5.47;1.70;;;;;;;15.18;96.87;102801.78;6703141;26;20388;-80
2024/04/11 11:57:09;;;;;;;4.25;1.80;;;;;;;15.14;96.34;102795.75;6784332;26;20038;-79
2024/04/11 12:00:19;;;;;;;7.40;2.35;;;;;;;15.15;96.63;102793.94;6820618;26;20005;-77
2024/04/11 12:03:21;;;;;;;6.70;2.20;;;;;;;15.11;97.68;102787.91;6776678;26;20015;-79
2024/04/11 12:06:24;;;;;;;5.72;1.92;;;;;;;15.29;97.56;102781.00;6784781;26;20007;-79
2024/04/11 12:09:31;;;;;;;3.03;1.75;;;;;;;15.50;97.33;102786.38;6717176;26;19996;-78
2024/04/11 12:12:34;;;;;;;4.00;2.03;;;;;;;15.37;98.36;102780.69;6717771;26;19996;-79
2024/04/11 12:15:35;;;;;;;9.40;1.98;;;;;;;15.50;96.31;102786.38;6717370;26;19996;-79
2024/04/11 12:18:40;;;;;;;5.05;2.28;;;;;;;15.52;98.06;102777.41;6716565;26;20002;-80
2024/04/11 12:21:44;;;;;;;4.03;2.65;;;;;;;15.74;98.13;102774.75;6705530;26;20011;-79
2024/04/11 12:24:50;;;;;;;6.85;2.28;;;;;;;15.95;99.05;102778.28;6673544;26;20360;-80
2024/04/11 12:27:51;;;;;;;6.93;2.05;;;;;;;16.25;97.02;102776.06;6673521;26;20038;-80
2024/04/11 12:30:59;;;;;;;9.48;2.85;;;;;;;16.15;96.43;102782.72;6681646;26;20004;-80
2024/04/11 12:33:59;;;;;;;4.72;2.13;;;;;;;16.09;95.94;102775.03;6697450;26;20026;-78
2024/04/11 12:37:11;;;;;;;5.75;2.38;;;;;;;16.12;96.04;102781.03;6777385;26;20349;-79
2024/04/11 12:40:23;;;;;;;12.07;3.25;;;;;;;16.06;97.37;102781.31;6717124;26;20059;-81
2024/04/11 12:43:35;;;;;;;7.13;1.98;;;;;;;16.11;96.80;102778.47;6683262;26;20051;-82
2024/04/11 12:46:37;;;;;;;4.70;2.30;;;;;;;16.22;95.85;102781.53;6714799;26;20244;-81
2024/04/11 12:49:43;;;;;;;4.03;2.20;;;;;;;16.32;97.74;102779.31;6784803;26;20016;-80
2024/04/11 12:52:44;;;;;;;3.65;2.00;;;;;;;16.43;97.75;102783.19;6759329;26;20344;-81
2024/04/11 12:55:52;;;;;;;4.97;2.03;;;;;;;16.52;97.06;102787.22;6745641;26;20039;-80
2024/04/11 12:59:05;;;;;;;4.50;2.28;;;;;;;16.34;95.46;102780.94;6754635;26;20000;-79
2024/04/11 13:02:08;;;;;;;10.57;2.42;;;;;;;16.29;96.02;102787.41;6672904;26;20020;-80
2024/04/11 13:05:13;;;;;;;4.07;2.17;;;;;;;16.11;96.36;102779.31;6672973;26;20011;-80
2024/04/11 13:08:16;;;;;;;5.45;2.33;;;;;;;16.10;96.90;102774.09;6693656;26;20638;-81
2024/04/11 13:11:36;;;;;;;3.95;2.30;;;;;;;16.02;98.18;102771.78;6716578;26;20002;-80
2024/04/11 13:14:55;;;;;;;7.15;2.13;;;;;;;16.04;100.00;102777.03;6716187;26;20011;-80
2024/04/11 13:17:58;;;;;;;7.07;2.28;;;;;;;16.16;99.60;102773.81;6716062;26;19992;-81
2024/04/11 13:20:58;;;;;;;4.40;2.28;;;;;;;16.00;100.00;102783.41;6716472;26;20400;-82
2024/04/11 13:24:10;;;;;;;5.40;2.30;;;;;;;16.06;99.69;102778.66;6716201;26;19996;-79
2024/04/11 13:27:16;;;;;;;7.20;2.22;;;;;;;16.06;100.00;102783.97;6716112;26;20006;-79
2024/04/11 13:30:16;;;;;;;4.03;2.05;;;;;;;16.04;100.00;102782.34;6717661;26;20446;-79
2024/04/11 13:33:20;;;;;;;3.85;2.20;;;;;;;16.03;100.00;102799.16;6720592;26;20008;-78
2024/04/11 13:36:23;;;;;;;5.25;2.05;;;;;;;16.02;100.00;102797.44;6720407;26;20056;-78
2024/04/11 13:39:30;;;;;;;7.63;2.72;;;;;;;15.96;100.00;102799.44;6720834;26;20263;-79
2024/04/11 13:42:33;;;;;;;5.50;3.03;;;;;;;16.02;100.00;102797.44;6720743;26;20276;-78
2024/04/11 13:45:41;;;;;;;8.68;2.78;;;;;;;16.11;100.00;102797.88;6720647;26;19995;-78
2024/04/11 13:48:50;;;;;;;5.03;2.22;;;;;;;16.10;100.00;102812.09;6720755;26;20064;-80
2024/04/11 13:51:52;;;;;;;4.80;3.05;;;;;;;16.00;100.00;102808.13;6720498;26;20002;-79
2024/04/11 13:54:59;;;;;;;6.15;2.83;;;;;;;15.97;100.00;102802.94;6720517;26;20064;-78
2024/04/11 13:58:03;;;;;;;2.60;2.30;;;;;;;15.89;100.00;102810.34;6719902;26;20267;-80
2024/04/11 14:01:06;;;;;;;4.80;2.53;;;;;;;15.80;100.00;102798.34;6720165;26;20000;-79
2024/04/11 14:04:15;;;;;;;5.72;2.38;;;;;;;15.85;100.00;102793.75;6720382;26;19991;-79
2024/04/11 14:07:18;;;;;;;5.78;2.88;;;;;;;15.83;100.00;102784.09;6720241;26;19996;-79
2024/04/11 14:10:21;;;;;;;5.55;2.88;;;;;;;15.66;100.00;102777.72;6720420;26;20007;-80
2024/04/11 14:13:26;;;;;;;4.90;3.17;;;;;;;15.68;100.00;102782.97;6719799;26;20041;-80
2024/04/11 14:16:46;;;;;;;6.60;3.45;;;;;;;15.71;100.00;102794.31;6719849;26;19996;-80